Latest Weather Observations for Nambour

IDQ60801

Issued at 5:02 pm EST Monday 30 March 2015 (issued every 30 minutes, with the page automatically refreshed every 10 minutes)

About weather observations | Map of weather stations | Latest weather observations for QLD | Other Formats
Station Details ID: 040988 Name: NAMBOUR DAFF - HILLSIDE Lat: -26.64 Lon: 152.94 Height: 53.24 m
Data from the previous 72 hours. | See also: Recent months at Nambour
Date/Time
EST
Temp
°C
App
Temp
°C
Dew
Point
Rel
Hum
%
Delta-T
°C
Wind Press
QNH
hPa
Press
MSL
hPa
Rain
since 9 am
mm
Dir
 
Spd
km/h
Gust
km/h
Spd
kts
Gust
kts
30/05:00pm 23.8 25.5 16.3 63 4.6 ESE 2 4 1 2 1021.3 1021.1 0.0
30/04:30pm 24.1 24.9 15.9 60 5.0 E 6 9 3 5 1020.9 1020.7 0.0
30/04:00pm 24.6 24.7 15.5 57 5.5 E 9 17 5 9 1020.8 1020.6 0.0
30/03:30pm 25.2 26.1 16.1 57 5.6 E 6 11 3 6 1020.6 1020.4 0.0
30/03:00pm 26.1 26.0 16.1 54 6.1 ENE 11 19 6 10 1020.7 1020.5 0.0
30/02:30pm 25.8 25.1 15.5 53 6.3 E 13 20 7 11 1020.7 1020.5 0.0
30/02:00pm 26.3 25.7 15.7 52 6.5 E 13 20 7 11 1020.9 1020.7 0.0
30/01:30pm 25.7 25.0 15.4 53 6.2 ENE 13 20 7 11 1021.3 1021.1 0.0
30/01:00pm 25.9 25.4 15.0 51 6.6 E 11 20 6 11 1021.7 1021.5 0.0
30/12:30pm 26.7 26.2 16.0 52 6.6 ENE 13 20 7 11 1021.9 1021.7 0.0
30/12:00pm 26.4 25.7 15.4 50 6.7 E 13 20 7 11 1022.4 1022.2 0.0
30/11:30am 26.5 27.3 18.1 60 5.3 E 11 20 6 11 1023.0 1022.8 0.0
30/11:00am 26.3 26.9 16.8 56 5.9 ENE 9 19 5 10 1023.5 1023.3 0.0
30/10:30am 25.9 26.3 16.2 55 6.0 ENE 9 17 5 9 1023.9 1023.7 0.0
30/10:00am 25.5 25.7 15.8 55 5.9 E 9 19 5 10 1023.8 1023.6 0.0
30/09:30am 25.3 26.6 17.2 61 5.0 NNE 6 13 3 7 1023.9 1023.7 0.0
30/09:00am 24.2 26.3 18.2 69 3.8 ENE 4 6 2 3 1023.8 1023.6 0.2
30/08:30am 21.7 25.2 19.6 88 1.3 CALM 0 0 0 0 1023.5 1023.3 0.2
30/08:00am 20.8 24.3 19.6 93 0.8 CALM 0 0 0 0 1023.6 1023.4 0.2
30/07:30am 19.8 23.0 18.8 94 0.6 CALM 0 0 0 0 1023.5 1023.3 0.2
30/07:00am 18.9 21.8 18.1 95 0.5 CALM 0 0 0 0 1023.0 1022.8 0.2
30/06:30am 18.3 21.0 17.7 96 0.4 CALM 0 0 0 0 1022.5 1022.3 0.2
30/06:00am 17.7 20.1 16.9 95 0.5 CALM 0 0 0 0 1022.3 1022.1 0.2
30/05:30am 17.8 20.2 17.0 95 0.5 CALM 0 0 0 0 1021.9 1021.7 0.2
30/05:00am 17.9 20.3 17.1 95 0.5 CALM 0 0 0 0 1021.8 1021.6 0.2
30/04:30am 17.8 20.2 17.0 95 0.5 CALM 0 0 0 0 1021.3 1021.1 0.2
30/04:00am 17.8 20.2 17.0 95 0.5 CALM 0 0 0 0 1021.2 1021.0 0.2
30/03:30am 18.1 20.6 17.3 95 0.5 CALM 0 0 0 0 1021.3 1021.1 0.2
30/03:00am 18.0 20.5 17.2 95 0.5 CALM 0 0 0 0 1021.5 1021.3 0.2
30/02:30am 17.9 20.3 17.1 95 0.5 CALM 0 0 0 0 1021.7 1021.5 0.2
30/02:00am 17.9 20.3 16.9 94 0.6 CALM 0 0 0 0 1021.9 1021.7 0.2
30/01:30am 18.0 20.5 17.2 95 0.5 CALM 0 0 0 0 1022.1 1021.9 0.2
30/01:00am 17.9 20.3 16.9 94 0.6 CALM 0 0 0 0 1022.2 1022.0 0.2
30/12:30am 18.0 20.4 17.0 94 0.6 CALM 0 0 0 0 1022.6 1022.4 0.2
30/12:00am 18.0 20.4 16.9 93 0.7 CALM 0 0 0 0 1022.7 1022.5 0.2
 
Date/Time
EST
Temp
°C
App
Temp
°C
Dew
Point
Rel
Hum
%
Delta-T
°C
Wind Press
QNH
hPa
Press
MSL
hPa
Rain
since 9 am
mm
Dir
 
Spd
km/h
Gust
km/h
Spd
kts
Gust
kts
29/11:30pm 18.1 20.5 17.0 93 0.7 CALM 0 0 0 0 1022.8 1022.6 0.2
29/11:00pm 18.3 20.7 17.1 93 0.7 CALM 0 0 0 0 1022.9 1022.7 0.2
29/10:30pm 18.3 20.6 16.8 91 0.9 CALM 0 0 0 0 1022.8 1022.6 0.2
29/10:00pm 18.5 21.0 17.2 92 0.8 CALM 0 0 0 0 1023.0 1022.8 0.2
29/09:30pm 18.9 21.5 17.4 91 0.9 CALM 0 0 0 0 1023.2 1023.0 0.2
29/09:00pm 19.1 21.7 17.4 90 1.0 CALM 0 0 0 0 1023.4 1023.2 0.2
29/08:30pm 19.1 21.4 16.7 86 1.4 CALM 0 0 0 0 1023.3 1023.1 0.2
29/08:00pm 19.6 21.8 16.6 83 1.8 CALM 0 0 0 0 1022.9 1022.7 0.2
29/07:30pm 19.7 21.9 16.5 82 1.9 CALM 0 0 0 0 1022.6 1022.4 0.2
29/07:00pm 20.4 22.6 16.6 79 2.3 CALM 0 0 0 0 1022.3 1022.1 0.2
29/06:30pm 21.2 22.9 16.2 73 3.0 S 2 4 1 2 1022.0 1021.8 0.2
29/06:00pm 23.0 24.5 15.8 64 4.3 ESE 2 4 1 2 1021.6 1021.4 0.2
29/05:30pm 24.1 24.8 15.6 59 5.1 ENE 6 9 3 5 1021.6 1021.4 0.2
29/05:00pm 24.8 24.8 15.1 54 5.8 ENE 9 17 5 9 1021.5 1021.3 0.2
29/04:30pm 25.3 25.3 15.3 54 6.0 ENE 9 15 5 8 1021.4 1021.2 0.2
29/04:00pm 25.8 25.7 14.9 51 6.5 ENE 9 13 5 7 1021.4 1021.2 0.2
29/03:30pm 26.0 25.6 15.1 51 6.6 ENE 11 17 6 9 1021.1 1020.9 0.2
29/03:00pm 26.2 25.6 15.6 52 6.4 ENE 13 20 7 11 1021.1 1020.9 0.2
29/02:30pm 26.7 26.0 16.3 53 6.4 ENE 15 20 8 11 1021.1 1020.9 0.2
29/02:00pm 26.5 25.6 14.9 49 7.0 ENE 13 22 7 12 1021.6 1021.4 0.2
29/01:30pm 26.5 26.1 16.1 52 6.4 ENE 13 20 7 11 1021.6 1021.4 0.2
29/01:00pm 26.0 25.5 16.0 54 6.1 E 13 20 7 11 1021.9 1021.7 0.2
29/12:30pm 25.7 26.2 16.5 56 5.7 E 9 15 5 8 1022.2 1022.0 0.2
29/12:00pm 25.5 25.1 16.1 56 5.7 E 13 19 7 10 1022.7 1022.5 0.2
29/11:30am 25.6 25.4 16.7 58 5.5 ENE 13 20 7 11 1022.9 1022.7 0.2
29/11:00am 25.4 26.1 17.1 60 5.1 E 9 15 5 8 1023.4 1023.2 0.2
29/10:30am 24.4 27.1 18.6 70 3.7 SSW 2 6 1 3 1023.6 1023.4 0.0
29/10:00am 24.4 26.9 18.1 68 4.0 SSE 2 6 1 3 1023.6 1023.4 0.0
29/09:30am 24.7 27.3 18.4 68 4.0 SE 2 4 1 2 1023.5 1023.3 0.0
29/09:00am 24.4 27.1 18.6 70 3.7 SW 2 4 1 2 1023.4 1023.2 17.8
29/08:30am 23.5 26.1 18.4 73 3.2 E 2 2 1 1 1023.2 1023.0 17.8
29/08:00am 22.5 25.8 19.1 81 2.2 CALM 0 0 0 0 1023.1 1022.9 17.8
29/07:30am 21.8 25.1 19.0 84 1.8 CALM 0 0 0 0 1022.6 1022.4 17.8
29/07:00am 20.4 23.7 19.2 93 0.8 CALM 0 0 0 0 1022.1 1021.9 17.8
29/06:30am 19.4 22.3 18.2 93 0.7 CALM 0 0 0 0 1021.6 1021.4 17.8
29/06:00am 19.5 22.5 18.5 94 0.6 CALM 0 0 0 0 1021.3 1021.1 17.8
29/05:30am 19.7 22.8 18.7 94 0.6 CALM 0 0 0 0 1021.0 1020.8 17.8
29/05:00am 19.8 23.0 18.8 94 0.6 CALM 0 0 0 0 1020.6 1020.4 17.8
29/04:30am 19.6 22.7 18.6 94 0.6 CALM 0 0 0 0 1020.2 1020.0 17.8
29/04:00am 19.3 22.2 18.3 94 0.6 CALM 0 0 0 0 1020.0 1019.8 17.8
29/03:30am 19.0 21.8 18.0 94 0.6 CALM 0 0 0 0 1020.0 1019.8 17.8
29/03:00am 18.9 21.7 17.9 94 0.6 CALM 0 0 0 0 1019.9 1019.7 17.8
29/02:30am 18.9 21.7 17.9 94 0.6 CALM 0 0 0 0 1020.2 1020.0 17.8
29/02:00am 18.9 21.6 17.7 93 0.7 CALM 0 0 0 0 1020.5 1020.3 17.8
29/01:30am 19.0 21.7 17.8 93 0.7 CALM 0 0 0 0 1020.6 1020.4 17.8
29/01:00am 19.0 21.7 17.7 92 0.8 CALM 0 0 0 0 1020.6 1020.4 17.8
29/12:30am 19.2 21.9 17.7 91 0.9 CALM 0 0 0 0 1020.8 1020.6 17.8
29/12:00am 19.5 22.4 18.2 92 0.8 CALM 0 0 0 0 1021.0 1020.8 17.8
 
Date/Time
EST
Temp
°C
App
Temp
°C
Dew
Point
Rel
Hum
%
Delta-T
°C
Wind Press
QNH
hPa
Press
MSL
hPa
Rain
since 9 am
mm
Dir
 
Spd
km/h
Gust
km/h
Spd
kts
Gust
kts
28/11:30pm 19.8 22.8 18.5 92 0.8 CALM 0 0 0 0 1021.4 1021.2 17.8
28/11:00pm 20.2 23.2 18.5 90 1.1 CALM 0 0 0 0 1021.6 1021.4 17.8
28/10:30pm 20.5 23.5 18.4 88 1.3 CALM 0 0 0 0 1021.5 1021.3 17.8
28/10:00pm 20.7 23.9 18.8 89 1.2 CALM 0 0 0 0 1021.6 1021.4 17.8
28/09:30pm 20.9 24.2 19.0 89 1.2 CALM 0 0 0 0 1021.6 1021.4 17.8
28/09:00pm 21.2 24.2 18.4 84 1.7 CALM 0 2 0 1 1021.5 1021.3 17.8
28/08:30pm 21.8 24.8 18.4 81 2.1 CALM 0 0 0 0 1021.1 1020.9 17.8
28/08:00pm 21.8 24.8 18.4 81 2.1 CALM 0 0 0 0 1020.9 1020.7 17.8
28/07:30pm 22.4 25.5 18.6 79 2.4 CALM 0 0 0 0 1020.6 1020.4 17.8
28/07:00pm 22.5 25.6 18.7 79 2.4 CALM 0 0 0 0 1020.2 1020.0 17.8
28/06:30pm 23.4 26.5 18.7 75 3.0 CALM 0 4 0 2 1020.0 1019.8 17.8
28/06:00pm 23.8 26.5 18.7 73 3.2 SSE 2 6 1 3 1019.8 1019.6 17.8
28/05:30pm 24.0 26.7 18.6 72 3.4 SE 2 9 1 5 1019.5 1019.3 17.8
28/05:00pm 24.5 26.3 18.4 69 3.9 ESE 6 9 3 5 1019.2 1019.0 17.8
28/04:30pm 25.0 25.8 18.2 66 4.3 ESE 11 19 6 10 1018.9 1018.7 17.8
28/04:00pm 25.7 27.9 19.1 67 4.2 ESE 6 9 3 5 1018.7 1018.5 17.8
28/03:30pm 25.4 27.1 18.6 66 4.3 ESE 7 11 4 6 1018.8 1018.6 17.8
28/03:00pm 25.3 28.7 20.1 73 3.4 SE 2 7 1 4 1019.0 1018.8 17.8
28/02:30pm 24.6 28.5 21.9 85 1.8 SE 4 9 2 5 1019.1 1018.9 17.8
28/02:00pm 23.4 27.6 21.8 91 1.1 W 2 4 1 2 1019.4 1019.2 17.8
28/01:30pm 23.3 26.6 20.8 86 1.6 S 4 9 2 5 1019.8 1019.6 17.4
28/01:00pm 25.4 30.4 22.5 84 1.9 CALM 0 4 0 2 1019.5 1019.3 10.6
28/12:30pm 23.1 26.4 21.4 90 1.1 SE 6 11 3 6 1019.9 1019.7 10.6
28/12:00pm 26.6 28.8 20.4 69 4.1 ENE 9 17 5 9 1020.0 1019.8 0.2
28/11:30am 24.9 28.7 21.0 79 2.6 NNE 2 4 1 2 1020.5 1020.3 0.2
28/11:00am 24.3 26.7 19.6 75 3.0 SE 6 15 3 8 1021.0 1020.8 0.0
28/10:30am 27.1 29.7 20.4 66 4.4 E 7 19 4 10 1020.9 1020.7 0.0
28/10:00am 26.4 27.8 19.5 66 4.5 E 11 20 6 11 1020.9 1020.7 0.0
28/09:30am 25.8 28.6 20.4 72 3.5 ESE 6 11 3 6 1020.9 1020.7 0.0
28/09:00am 26.6 29.5 20.7 70 3.9 SE 6 9 3 5 1020.7 1020.5 0.0
28/08:30am 26.4 29.3 20.7 71 3.8 SSE 6 11 3 6 1020.6 1020.4 0.0
28/08:00am 25.5 29.8 21.2 77 2.8 CALM 0 4 0 2 1020.3 1020.1 0.0
28/07:30am 24.3 28.1 21.0 82 2.2 WSW 2 6 1 3 1019.8 1019.6 0.0
28/07:00am 24.0 28.2 20.9 83 2.0 CALM 0 4 0 2 1019.5 1019.3 0.0
28/06:30am 23.4 27.8 21.3 88 1.4 CALM 0 0 0 0 1019.2 1019.0 0.0
28/06:00am 23.1 27.4 21.2 89 1.2 CALM 0 0 0 0 1018.9 1018.7 0.0
28/05:30am 23.1 27.4 21.2 89 1.2 CALM 0 6 0 3 1018.6 1018.4 0.0
28/05:00am 22.7 26.9 21.0 90 1.1 CALM 0 0 0 0 1018.4 1018.2 0.0
28/04:30am 22.6 26.8 20.9 90 1.1 CALM 0 2 0 1 1018.0 1017.8 0.0
28/04:00am 22.7 26.8 20.8 89 1.2 CALM 0 0 0 0 1017.7 1017.5 0.0
28/03:30am 23.2 27.6 21.3 89 1.3 CALM 0 0 0 0 1017.6 1017.4 0.0
28/03:00am 22.7 27.0 21.2 91 1.0 CALM 0 0 0 0 1017.6 1017.4 0.0
28/02:30am 22.8 27.1 21.1 90 1.1 CALM 0 0 0 0 1017.7 1017.5 0.0
28/02:00am 22.9 27.1 21.0 89 1.2 CALM 0 0 0 0 1017.9 1017.7 0.0
28/01:30am 23.3 27.7 21.4 89 1.3 CALM 0 0 0 0 1018.0 1017.8 0.0
28/01:00am 23.3 27.8 21.6 90 1.1 CALM 0 6 0 3 1018.1 1017.9 0.0
28/12:30am 23.3 27.5 21.7 91 1.1 SW 2 7 1 4 1018.1 1017.9 0.0
28/12:00am 23.4 28.0 21.7 90 1.1 CALM 0 4 0 2 1018.3 1018.1 0.0
 
Date/Time
EST
Temp
°C
App
Temp
°C
Dew
Point
Rel
Hum
%
Delta-T
°C
Wind Press
QNH
hPa
Press
MSL
hPa
Rain
since 9 am
mm
Dir
 
Spd
km/h
Gust
km/h
Spd
kts
Gust
kts
27/11:30pm 23.7 28.3 21.8 89 1.3 CALM 0 0 0 0 1018.7 1018.5 0.0
27/11:00pm 24.0 28.9 22.3 90 1.1 CALM 0 0 0 0 1019.0 1018.8 0.0
27/10:30pm 24.1 28.4 22.0 88 1.4 SW 2 6 1 3 1019.1 1018.9 0.0
27/10:00pm 24.3 28.8 21.6 85 1.8 CALM 0 0 0 0 1019.1 1018.9 0.0
27/09:30pm 24.3 28.1 21.6 85 1.8 SW 4 6 2 3 1019.1 1018.9 0.0
27/09:00pm 24.6 28.9 21.1 81 2.3 CALM 0 0 0 0 1019.2 1019.0 0.0
27/08:30pm 24.8 29.1 21.1 80 2.4 CALM 0 2 0 1 1019.1 1018.9 0.0
27/08:00pm 24.8 29.2 21.3 81 2.3 CALM 0 0 0 0 1018.9 1018.7 0.0
27/07:30pm 24.9 29.2 21.2 80 2.4 CALM 0 0 0 0 1018.7 1018.5 0.0
27/07:00pm 25.2 29.1 21.1 78 2.7 ESE 2 4 1 2 1018.5 1018.3 0.0
27/06:30pm 25.4 28.6 21.3 78 2.7 ESE 6 9 3 5 1018.0 1017.8 0.0
27/06:00pm 25.7 29.1 21.6 78 2.7 ESE 6 11 3 6 1017.5 1017.3 0.0
27/05:30pm 26.2 29.3 21.4 75 3.2 ESE 7 13 4 7 1017.1 1016.9 0.0

Other Formats:

Comma delimited format used in spreadsheet applications
http://www.bom.gov.au/fwo/IDQ60801/IDQ60801.95572.axf

JavaScript Object Notation format (JSON) in row-major order
http://www.bom.gov.au/fwo/IDQ60801/IDQ60801.95572.json